createdAt,value
2023-05-02T00:01:43.951Z,70.60
2023-05-02T00:04:11.051Z,70.70
2023-05-02T00:06:37.887Z,70.70
2023-05-02T00:09:04.732Z,70.80
2023-05-02T00:11:31.475Z,70.90
2023-05-02T00:13:58.258Z,71.10
2023-05-02T00:16:25.188Z,71.10
2023-05-02T00:18:52.001Z,71.10
2023-05-02T00:21:18.720Z,71.20
2023-05-02T00:23:45.527Z,71.30
2023-05-02T00:26:12.394Z,71.40
2023-05-02T00:28:40.051Z,71.40
2023-05-02T00:31:06.844Z,71.40
2023-05-02T00:33:33.852Z,71.40
2023-05-02T00:36:00.697Z,71.50
2023-05-02T00:38:27.472Z,71.60
2023-05-02T00:40:54.299Z,71.70
2023-05-02T00:43:21.294Z,71.70
2023-05-02T00:45:48.782Z,71.70
2023-05-02T00:48:17.898Z,71.70
2023-05-02T00:50:44.658Z,71.70
2023-05-02T00:53:11.487Z,71.80
2023-05-02T00:55:38.842Z,71.90
2023-05-02T00:58:11.882Z,71.90
2023-05-02T01:00:59.875Z,72.00
2023-05-02T01:03:47.318Z,72.00
2023-05-02T01:06:29.655Z,71.90
2023-05-02T01:09:13.033Z,72.00
2023-05-02T01:12:04.546Z,72.00
2023-05-02T01:14:38.107Z,72.10
2023-05-02T01:17:10.173Z,72.10
2023-05-02T01:19:41.873Z,72.30
2023-05-02T01:22:10.840Z,72.40
2023-05-02T01:24:54.737Z,72.30
2023-05-02T01:27:31.207Z,72.40
2023-05-02T01:29:59.396Z,72.40
2023-05-02T01:32:28.273Z,72.50
2023-05-02T01:35:02.193Z,72.60
2023-05-02T01:37:30.873Z,72.60
2023-05-02T01:40:01.393Z,72.70
2023-05-02T01:42:30.469Z,72.70
2023-05-02T01:45:01.483Z,72.70
2023-05-02T01:47:32.542Z,72.70
2023-05-02T01:50:00.368Z,72.80
2023-05-02T01:52:28.395Z,72.80
2023-05-02T01:55:02.580Z,73.00
2023-05-02T01:57:29.564Z,73.70
2023-05-02T02:00:01.315Z,73.00
2023-05-02T02:02:29.843Z,73.20
2023-05-02T02:04:58.047Z,73.10
2023-05-02T02:07:25.030Z,73.20
2023-05-02T02:09:52.873Z,73.30
2023-05-02T02:12:39.818Z,73.40
2023-05-02T02:15:39.759Z,73.50
2023-05-02T02:18:19.790Z,73.10
2023-05-02T02:20:48.848Z,73.40
2023-05-02T02:23:22.865Z,73.40
2023-05-02T02:25:52.282Z,73.50
2023-05-02T02:28:19.414Z,73.60
2023-05-02T02:30:46.413Z,73.50
2023-05-02T02:33:13.278Z,73.60
2023-05-02T02:35:47.926Z,73.60
2023-05-02T02:38:50.606Z,73.70
2023-05-02T02:41:46.936Z,73.50
2023-05-02T02:44:32.467Z,73.70
2023-05-02T02:47:46.942Z,73.80
2023-05-02T02:50:41.751Z,73.40
2023-05-02T02:53:15.566Z,73.70
2023-05-02T02:56:05.407Z,73.70
2023-05-02T02:58:46.161Z,73.90
2023-05-02T03:01:19.827Z,73.80
2023-05-02T03:03:51.981Z,73.90
2023-05-02T03:06:19.520Z,73.90
2023-05-02T03:08:46.576Z,73.90
2023-05-02T03:11:13.585Z,73.70
2023-05-02T03:13:40.559Z,73.70
2023-05-02T03:16:36.908Z,73.90
2023-05-02T03:19:05.191Z,73.80
2023-05-02T03:21:32.611Z,73.90
2023-05-02T03:24:00.895Z,73.90
2023-05-02T03:26:28.307Z,73.90
2023-05-02T03:28:56.478Z,73.80
2023-05-02T03:31:29.210Z,73.80
2023-05-02T03:33:56.046Z,73.80
2023-05-02T03:36:22.876Z,73.50
2023-05-02T03:38:49.884Z,73.50
2023-05-02T03:41:16.665Z,73.40
2023-05-02T03:43:46.635Z,73.40
2023-05-02T03:46:13.494Z,73.40
2023-05-02T03:48:43.132Z,73.10
2023-05-02T03:51:10.081Z,72.90
2023-05-02T03:53:37.389Z,72.70
2023-05-02T03:56:04.242Z,72.70
2023-05-02T03:58:30.935Z,72.50
2023-05-02T04:00:57.641Z,72.40
2023-05-02T04:03:24.717Z,72.20
2023-05-02T04:05:51.909Z,72.00
2023-05-02T04:08:19.476Z,71.90
2023-05-02T04:10:46.353Z,71.80
2023-05-02T04:13:16.204Z,71.80
2023-05-02T04:15:45.428Z,71.70
2023-05-02T04:18:12.190Z,71.70
2023-05-02T04:20:41.697Z,71.60
2023-05-02T04:23:08.396Z,71.60
2023-05-02T04:25:38.049Z,72.30
2023-05-02T04:28:05.868Z,71.50
2023-05-02T04:30:33.155Z,71.50
2023-05-02T04:32:59.977Z,71.40
2023-05-02T04:35:26.829Z,71.40
2023-05-02T04:37:53.703Z,71.40
2023-05-02T04:40:20.626Z,71.40
2023-05-02T04:42:47.341Z,71.40
2023-05-02T04:45:14.108Z,71.30
2023-05-02T04:47:40.981Z,71.30
2023-05-02T04:50:08.618Z,71.20
2023-05-02T04:52:38.516Z,71.10
2023-05-02T04:55:05.863Z,71.20
2023-05-02T04:57:32.575Z,71.10
2023-05-02T04:59:59.630Z,70.80
2023-05-02T05:02:27.048Z,70.70
2023-05-02T05:04:53.914Z,70.40
2023-05-02T05:07:20.701Z,70.20
2023-05-02T05:09:47.712Z,70.10
2023-05-02T05:12:14.596Z,70.00
2023-05-02T05:14:41.392Z,69.90
2023-05-02T05:17:08.250Z,69.70
2023-05-02T05:19:35.030Z,69.70
2023-05-02T05:22:01.868Z,69.80
2023-05-02T05:24:28.557Z,69.70
2023-05-02T05:26:55.239Z,69.70
2023-05-02T05:29:22.106Z,69.70
2023-05-02T05:31:50.106Z,69.70
2023-05-02T05:34:17.200Z,69.70
2023-05-02T05:36:46.215Z,69.70
2023-05-02T05:39:13.420Z,69.70
2023-05-02T05:41:40.214Z,69.70
2023-05-02T05:44:07.016Z,69.70
2023-05-02T05:46:33.828Z,69.70
2023-05-02T05:49:01.507Z,69.80
2023-05-02T05:51:28.788Z,69.80
2023-05-02T05:53:55.601Z,69.80
2023-05-02T05:56:23.310Z,69.80
2023-05-02T05:58:50.170Z,69.80
2023-05-02T06:01:16.977Z,69.70
2023-05-02T06:03:43.974Z,69.70
2023-05-02T06:06:10.938Z,69.60
2023-05-02T06:08:37.787Z,69.70
2023-05-02T06:11:10.388Z,69.70
2023-05-02T06:13:38.016Z,69.70
2023-05-02T06:16:05.617Z,69.80
2023-05-02T06:18:32.396Z,69.60
2023-05-02T06:21:06.972Z,69.60
2023-05-02T06:23:33.786Z,69.70
2023-05-02T06:26:04.435Z,69.60
2023-05-02T06:28:31.900Z,69.50
2023-05-02T06:31:05.991Z,69.30
2023-05-02T06:33:37.628Z,69.30
2023-05-02T06:36:07.316Z,69.30
2023-05-02T06:38:34.036Z,69.40
2023-05-02T06:41:03.231Z,69.40
2023-05-02T06:43:30.016Z,69.40
2023-05-02T06:45:56.870Z,69.40
2023-05-02T06:48:23.674Z,69.20
2023-05-02T06:50:53.204Z,69.10
2023-05-02T06:53:20.030Z,69.00
2023-05-02T06:55:48.496Z,69.10
2023-05-02T06:58:16.588Z,69.20
2023-05-02T07:00:43.341Z,69.20
2023-05-02T07:03:11.408Z,69.00
2023-05-02T07:05:38.355Z,68.90
2023-05-02T07:08:05.364Z,68.80
2023-05-02T07:10:32.330Z,68.40
2023-05-02T07:12:59.161Z,68.10
2023-05-02T07:15:25.902Z,67.90
2023-05-02T07:17:52.667Z,67.90
2023-05-02T07:20:20.049Z,67.90
2023-05-02T07:22:46.985Z,67.90
2023-05-02T07:25:13.868Z,68.00
2023-05-02T07:27:40.549Z,68.10
2023-05-02T07:30:07.947Z,68.10
2023-05-02T07:32:35.724Z,68.20
2023-05-02T07:35:02.527Z,68.20
2023-05-02T07:37:39.013Z,68.00
2023-05-02T07:40:07.992Z,67.90
2023-05-02T07:42:34.990Z,67.80
2023-05-02T07:45:01.978Z,67.80
2023-05-02T07:47:29.355Z,67.60
2023-05-02T07:49:56.586Z,67.50
2023-05-02T07:52:23.852Z,67.50
2023-05-02T07:54:51.205Z,67.20
2023-05-02T07:57:18.622Z,67.00
2023-05-02T07:59:48.004Z,66.70
2023-05-02T08:02:14.797Z,66.20
2023-05-02T08:04:41.817Z,66.10
2023-05-02T08:07:08.681Z,66.00
2023-05-02T08:09:35.421Z,65.80
2023-05-02T08:12:03.238Z,65.60
2023-05-02T08:14:30.049Z,65.70
2023-05-02T08:16:56.805Z,65.50
2023-05-02T08:19:23.634Z,65.90
2023-05-02T08:21:50.658Z,65.20
2023-05-02T08:24:17.310Z,64.70
2023-05-02T08:26:44.047Z,63.90
2023-05-02T08:29:11.825Z,63.10
2023-05-02T08:31:40.848Z,62.90
2023-05-02T08:34:07.736Z,62.90
2023-05-02T08:36:37.628Z,62.70
2023-05-02T08:39:04.571Z,63.00
2023-05-02T08:41:31.465Z,62.90
2023-05-02T08:43:59.806Z,62.70
2023-05-02T08:46:35.374Z,62.40
2023-05-02T08:49:03.375Z,62.30
2023-05-02T08:51:32.770Z,62.40
2023-05-02T08:54:01.412Z,62.50
2023-05-02T08:56:28.207Z,62.80
2023-05-02T08:58:55.096Z,62.60
2023-05-02T09:01:24.255Z,62.50
2023-05-02T09:03:55.973Z,62.50
2023-05-02T09:06:23.268Z,62.40
2023-05-02T09:08:55.096Z,62.50
2023-05-02T09:11:22.260Z,63.40
2023-05-02T09:13:51.413Z,63.30
2023-05-02T09:16:22.925Z,62.70
2023-05-02T09:18:52.836Z,62.90
2023-05-02T09:21:22.064Z,61.60
2023-05-02T09:23:50.739Z,61.20
2023-05-02T09:26:18.653Z,61.10
2023-05-02T09:28:55.894Z,61.20
2023-05-02T09:34:11.884Z,61.10
2023-05-02T09:36:46.619Z,61.20
2023-05-02T09:39:15.934Z,60.70
2023-05-02T09:41:44.074Z,61.40
2023-05-02T09:44:17.092Z,61.20
2023-05-02T09:46:45.467Z,60.40
2023-05-02T09:49:12.380Z,59.70
2023-05-02T09:51:39.157Z,59.50
2023-05-02T09:54:05.917Z,59.40
2023-05-02T09:56:51.704Z,59.20
2023-05-02T09:59:18.470Z,59.00
2023-05-02T10:01:48.050Z,58.50
2023-05-02T10:04:19.545Z,57.80
2023-05-02T10:06:48.185Z,57.30
2023-05-02T10:09:19.708Z,57.00
2023-05-02T10:11:52.235Z,57.20
2023-05-02T10:14:21.722Z,57.50
2023-05-02T10:16:55.692Z,57.10
2023-05-02T10:19:49.793Z,56.80
2023-05-02T10:22:20.179Z,57.00
2023-05-02T10:24:50.612Z,57.10
2023-05-02T10:27:17.520Z,56.90
2023-05-02T10:29:44.909Z,57.20
2023-05-02T10:32:13.848Z,57.20
2023-05-02T10:34:42.179Z,57.10
2023-05-02T10:37:09.182Z,56.90
2023-05-02T10:39:36.069Z,57.00
2023-05-02T10:42:04.625Z,56.90
2023-05-02T10:44:34.308Z,57.10
2023-05-02T10:47:01.247Z,57.30
2023-05-02T10:49:31.760Z,57.20
2023-05-02T10:51:59.150Z,56.60
2023-05-02T10:54:26.162Z,56.20
2023-05-02T10:57:06.351Z,55.60
2023-05-02T10:59:43.103Z,55.40
2023-05-02T11:02:32.877Z,55.30
2023-05-02T11:05:07.475Z,55.10
2023-05-02T11:07:36.162Z,55.10
2023-05-02T11:10:18.232Z,55.40
2023-05-02T11:12:54.324Z,55.40
2023-05-02T11:15:27.745Z,55.00
2023-05-02T11:18:08.191Z,54.90
2023-05-02T11:20:36.830Z,54.70
2023-05-02T11:23:21.830Z,54.60
2023-05-02T11:25:49.738Z,54.00
2023-05-02T11:28:37.790Z,53.50
2023-05-02T11:31:09.723Z,53.40
2023-05-02T11:33:36.964Z,53.10
2023-05-02T11:36:04.087Z,52.90
2023-05-02T11:38:38.809Z,52.50
2023-05-02T11:41:08.790Z,52.30
2023-05-02T11:43:35.751Z,52.40
2023-05-02T11:46:02.978Z,52.30
2023-05-02T11:48:31.183Z,51.60
2023-05-02T11:51:03.688Z,51.70
2023-05-02T11:53:31.490Z,51.60
2023-05-02T11:56:05.460Z,51.90
2023-05-02T11:58:34.165Z,51.60
2023-05-02T12:01:17.427Z,51.60
2023-05-02T12:03:45.060Z,51.80
2023-05-02T12:06:17.098Z,51.10
2023-05-02T12:08:44.731Z,50.60
2023-05-02T12:11:16.124Z,50.40
2023-05-02T12:13:48.109Z,49.40
2023-05-02T12:16:15.993Z,49.30
2023-05-02T12:18:43.479Z,49.60
2023-05-02T12:21:10.607Z,50.20
2023-05-02T12:23:37.884Z,49.90
2023-05-02T12:26:24.388Z,49.50
2023-05-02T12:28:52.262Z,49.30
2023-05-02T12:31:19.961Z,49.40
2023-05-02T12:33:52.546Z,49.50
2023-05-02T12:36:19.876Z,49.50
2023-05-02T12:38:57.006Z,48.80
2023-05-02T12:41:35.271Z,48.40
2023-05-02T12:44:02.872Z,49.00
2023-05-02T12:46:31.555Z,48.50
2023-05-02T12:49:12.487Z,47.90
2023-05-02T12:51:40.038Z,48.50
2023-05-02T12:54:07.339Z,48.80
2023-05-02T12:56:41.483Z,49.10
2023-05-02T12:59:08.585Z,48.70
2023-05-02T13:01:38.216Z,48.60
2023-05-02T13:04:05.826Z,48.60
2023-05-02T13:06:32.812Z,47.90
2023-05-02T13:09:00.088Z,47.70
2023-05-02T13:11:27.112Z,48.10
2023-05-02T13:13:54.045Z,47.70
2023-05-02T13:16:21.361Z,47.20
2023-05-02T13:18:48.366Z,47.60
2023-05-02T13:21:15.256Z,47.60
2023-05-02T13:23:44.131Z,47.60
2023-05-02T13:26:11.605Z,47.80
2023-05-02T13:28:41.320Z,47.50
2023-05-02T13:31:08.163Z,47.70
2023-05-02T13:33:34.984Z,46.90
2023-05-02T13:36:01.781Z,47.10
2023-05-02T13:38:28.566Z,46.90
2023-05-02T13:40:55.360Z,46.60
2023-05-02T13:43:22.090Z,46.80
2023-05-02T13:45:49.233Z,47.00
2023-05-02T13:48:16.306Z,46.80
2023-05-02T13:50:43.348Z,46.30
2023-05-02T13:53:10.194Z,46.20
2023-05-02T13:55:37.247Z,45.90
2023-05-02T13:58:03.945Z,45.40
2023-05-02T14:00:30.829Z,45.00
2023-05-02T14:02:57.860Z,44.70
2023-05-02T14:05:24.721Z,45.00
2023-05-02T14:07:51.503Z,45.30
2023-05-02T14:10:18.333Z,45.40
2023-05-02T14:12:45.135Z,45.10
2023-05-02T14:15:12.639Z,44.60
2023-05-02T14:17:39.479Z,45.00
2023-05-02T14:20:07.933Z,43.90
2023-05-02T14:22:34.779Z,43.70
2023-05-02T14:25:01.544Z,43.80
2023-05-02T14:27:30.863Z,44.00
2023-05-02T14:29:57.598Z,44.30
2023-05-02T14:32:24.594Z,44.30
2023-05-02T14:34:51.381Z,44.20
2023-05-02T14:37:18.111Z,44.10
2023-05-02T14:39:46.621Z,44.60
2023-05-02T14:42:14.998Z,44.20
2023-05-02T14:44:42.331Z,44.00
2023-05-02T14:47:09.508Z,43.90
2023-05-02T14:49:36.668Z,43.90
2023-05-02T14:52:03.599Z,43.40
2023-05-02T14:54:30.773Z,43.50
2023-05-02T14:56:58.165Z,43.80
2023-05-02T14:59:28.005Z,44.70
2023-05-02T15:01:54.929Z,44.60
2023-05-02T15:04:24.656Z,43.50
2023-05-02T15:06:54.309Z,44.00
2023-05-02T15:09:27.211Z,43.20
2023-05-02T15:11:54.038Z,43.50
2023-05-02T15:14:21.251Z,43.80
2023-05-02T15:16:48.424Z,44.00
2023-05-02T15:19:15.401Z,44.00
2023-05-02T15:21:42.767Z,43.90
2023-05-02T15:24:10.626Z,43.80
2023-05-02T15:26:41.086Z,43.90
2023-05-02T15:29:08.033Z,44.30
2023-05-02T15:31:34.882Z,44.40
2023-05-02T15:34:01.774Z,44.20
2023-05-02T15:36:29.893Z,44.10
2023-05-02T15:38:57.352Z,43.60
2023-05-02T15:41:28.359Z,43.80
2023-05-02T15:43:55.282Z,43.70
2023-05-02T15:46:22.378Z,43.70
2023-05-02T15:48:49.696Z,43.70
2023-05-02T15:51:16.810Z,43.60
2023-05-02T15:53:45.028Z,43.60
2023-05-02T15:56:12.204Z,43.70
2023-05-02T15:58:39.426Z,43.80
2023-05-02T16:01:06.644Z,43.30
2023-05-02T16:03:34.416Z,43.60
2023-05-02T16:06:01.612Z,43.80
2023-05-02T16:08:28.851Z,43.60
2023-05-02T16:10:57.935Z,43.80
2023-05-02T16:13:24.857Z,43.60
2023-05-02T16:15:52.607Z,43.30
2023-05-02T16:18:20.365Z,43.10
2023-05-02T16:20:47.888Z,43.80
2023-05-02T16:23:17.767Z,43.30
2023-05-02T16:25:44.435Z,43.30
2023-05-02T16:28:14.018Z,43.20
2023-05-02T16:30:41.782Z,43.50
2023-05-02T16:33:08.690Z,43.50
2023-05-02T16:35:35.658Z,43.50
2023-05-02T16:38:04.988Z,43.60
2023-05-02T16:40:31.915Z,43.70
2023-05-02T16:42:59.067Z,43.50
2023-05-02T16:45:25.922Z,43.30
2023-05-02T16:47:56.021Z,43.50
2023-05-02T16:50:22.902Z,43.60
2023-05-02T16:52:49.799Z,43.90
2023-05-02T16:55:16.906Z,43.90
2023-05-02T16:57:43.862Z,44.00
2023-05-02T17:00:12.468Z,43.90
2023-05-02T17:02:42.212Z,44.00
2023-05-02T17:05:10.724Z,44.20
2023-05-02T17:07:37.820Z,44.20
2023-05-02T17:10:05.244Z,44.40
2023-05-02T17:12:32.532Z,44.10
2023-05-02T17:15:01.463Z,44.30
2023-05-02T17:17:29.044Z,44.30
2023-05-02T17:19:55.920Z,44.20
2023-05-02T17:22:22.784Z,44.40
2023-05-02T17:24:52.841Z,44.50
2023-05-02T17:27:19.844Z,44.50
2023-05-02T17:29:46.762Z,44.50
2023-05-02T17:32:15.694Z,44.60
2023-05-02T17:34:43.589Z,44.80
2023-05-02T17:37:10.778Z,44.90
2023-05-02T17:39:37.623Z,45.10
2023-05-02T17:42:04.555Z,45.10
2023-05-02T17:44:33.842Z,45.10
2023-05-02T17:47:00.549Z,45.30
2023-05-02T17:49:27.405Z,45.20
2023-05-02T17:51:54.391Z,45.20
2023-05-02T17:54:21.365Z,45.30
2023-05-02T17:56:48.186Z,45.40
2023-05-02T17:59:15.084Z,45.40
2023-05-02T18:01:41.832Z,45.60
2023-05-02T18:04:12.977Z,45.60
2023-05-02T18:06:40.213Z,45.70
2023-05-02T18:09:07.781Z,45.70
2023-05-02T18:11:35.219Z,45.70
2023-05-02T18:14:06.216Z,45.80
2023-05-02T18:16:36.518Z,45.90
2023-05-02T18:19:03.558Z,46.00
2023-05-02T18:21:33.934Z,46.10
2023-05-02T18:24:00.773Z,46.30
2023-05-02T18:26:27.684Z,46.30
2023-05-02T18:28:55.072Z,46.50
2023-05-02T18:31:22.078Z,46.70
2023-05-02T18:33:50.328Z,46.90
2023-05-02T18:36:23.622Z,47.10
2023-05-02T18:38:50.399Z,47.30
2023-05-02T18:41:18.626Z,47.40
2023-05-02T18:43:48.894Z,47.60
2023-05-02T18:46:15.692Z,47.90
2023-05-02T18:48:42.700Z,48.10
2023-05-02T18:51:09.614Z,48.40
2023-05-02T18:53:36.545Z,48.60
2023-05-02T18:56:03.416Z,48.70
2023-05-02T18:58:30.122Z,48.90
2023-05-02T19:00:57.046Z,49.10
2023-05-02T19:03:26.971Z,49.20
2023-05-02T19:05:57.047Z,49.30
2023-05-02T19:08:23.805Z,49.30
2023-05-02T19:10:50.720Z,49.30
2023-05-02T19:13:17.778Z,49.40
2023-05-02T19:15:44.557Z,49.40
2023-05-02T19:18:11.577Z,49.50
2023-05-02T19:20:38.836Z,49.70
2023-05-02T19:23:19.214Z,49.90
2023-05-02T19:25:47.405Z,50.00
2023-05-02T19:28:15.877Z,50.20
2023-05-02T19:30:44.327Z,50.30
2023-05-02T19:33:11.855Z,50.50
2023-05-02T19:35:38.798Z,50.60
2023-05-02T19:38:05.684Z,50.70
2023-05-02T19:40:32.441Z,50.70
2023-05-02T19:42:59.200Z,50.80
2023-05-02T19:45:26.128Z,50.90
2023-05-02T19:47:55.442Z,51.10
2023-05-02T19:50:22.958Z,51.20
2023-05-02T19:52:50.441Z,51.40
2023-05-02T19:55:18.519Z,51.50
2023-05-02T19:57:45.423Z,51.80
2023-05-02T20:00:13.998Z,51.80
2023-05-02T20:02:41.068Z,51.90
2023-05-02T20:05:08.237Z,52.00
2023-05-02T20:07:34.919Z,52.20
2023-05-02T20:10:02.213Z,52.20
2023-05-02T20:12:29.255Z,52.40
2023-05-02T20:14:56.144Z,52.40
2023-05-02T20:17:23.194Z,52.40
2023-05-02T20:19:50.121Z,52.50
2023-05-02T20:22:18.157Z,52.70
2023-05-02T20:24:45.072Z,52.70
2023-05-02T20:27:11.842Z,52.80
2023-05-02T20:29:38.581Z,52.90
2023-05-02T20:32:05.781Z,53.00
2023-05-02T20:34:35.669Z,53.10
2023-05-02T20:37:06.364Z,53.30
2023-05-02T20:39:33.197Z,53.50
2023-05-02T20:42:00.039Z,53.40
2023-05-02T20:44:28.534Z,53.60
2023-05-02T20:46:55.451Z,54.50
2023-05-02T20:49:22.287Z,54.60
2023-05-02T20:51:50.195Z,54.80
2023-05-02T20:54:17.115Z,54.90
2023-05-02T20:56:43.993Z,55.00
2023-05-02T20:59:11.537Z,55.00
2023-05-02T21:01:38.730Z,55.10
2023-05-02T21:04:05.581Z,55.30
2023-05-02T21:06:32.754Z,55.30
2023-05-02T21:09:00.784Z,55.50
2023-05-02T21:11:27.555Z,55.50
2023-05-02T21:13:54.534Z,55.60
2023-05-02T21:16:25.713Z,55.60
2023-05-02T21:18:52.674Z,55.70
2023-05-02T21:21:19.490Z,55.80
2023-05-02T21:23:46.409Z,55.90
2023-05-02T21:26:13.545Z,56.10
2023-05-02T21:28:40.410Z,56.20
2023-05-02T21:31:08.023Z,56.20
2023-05-02T21:33:34.947Z,56.40
2023-05-02T21:36:01.902Z,56.50
2023-05-02T21:38:29.117Z,56.50
2023-05-02T21:40:56.067Z,56.60
2023-05-02T21:43:22.944Z,56.70
2023-05-02T21:45:53.192Z,56.90
2023-05-02T21:48:20.138Z,57.00
2023-05-02T21:50:47.024Z,57.70
2023-05-02T21:53:14.128Z,57.20
2023-05-02T21:55:41.167Z,57.00
2023-05-02T21:58:09.582Z,57.00
2023-05-02T22:00:43.354Z,57.10
2023-05-02T22:03:11.712Z,57.30
2023-05-02T22:05:39.976Z,57.20
2023-05-02T22:08:11.221Z,57.50
2023-05-02T22:10:49.172Z,57.50
2023-05-02T22:13:16.402Z,57.60
2023-05-02T22:15:47.252Z,57.50
2023-05-02T22:18:17.833Z,57.50
2023-05-02T22:20:45.448Z,57.50
2023-05-02T22:23:12.695Z,57.70
2023-05-02T22:25:44.898Z,57.60
2023-05-02T22:28:12.255Z,57.80
2023-05-02T22:30:44.847Z,57.70
2023-05-02T22:33:12.223Z,57.90
2023-05-02T22:35:39.216Z,58.00
2023-05-02T22:38:10.696Z,58.00
2023-05-02T22:40:40.456Z,58.10
2023-05-02T22:43:08.190Z,58.10
2023-05-02T22:45:36.484Z,58.10
2023-05-02T22:48:03.480Z,58.20
2023-05-02T22:50:30.527Z,58.10
2023-05-02T22:52:58.686Z,58.20
2023-05-02T22:55:25.925Z,58.10
2023-05-02T22:57:52.784Z,58.10
2023-05-02T23:00:19.803Z,58.20
2023-05-02T23:02:49.388Z,58.30
2023-05-02T23:05:16.510Z,58.50
2023-05-02T23:07:43.632Z,58.40
2023-05-02T23:10:10.806Z,58.40
2023-05-02T23:12:37.784Z,58.40
2023-05-02T23:15:04.950Z,58.50
2023-05-02T23:17:31.915Z,58.60
2023-05-02T23:19:58.938Z,58.50
2023-05-02T23:22:25.700Z,58.50
2023-05-02T23:24:52.639Z,59.30
2023-05-02T23:27:22.472Z,58.80
2023-05-02T23:29:49.300Z,58.70
2023-05-02T23:32:16.885Z,58.80
2023-05-02T23:34:46.674Z,58.90
2023-05-02T23:37:14.563Z,58.80
2023-05-02T23:39:44.197Z,59.00
2023-05-02T23:42:11.004Z,59.10
2023-05-02T23:44:38.047Z,59.20
2023-05-02T23:47:05.113Z,59.20
2023-05-02T23:49:31.973Z,59.10
2023-05-02T23:51:58.767Z,59.20
2023-05-02T23:54:25.863Z,59.30
2023-05-02T23:56:53.575Z,59.40
2023-05-02T23:59:22.780Z,59.40
